Time;durP1;ratioP1;P1;durP2;ratioP2;P2;SDS_P1;SDS_P2;PMS_P1;PMS_P2;Temp;Humidity;BMP_temperature;BMP_pressure;BME280_temperature;BME280_humidity;BME280_pressure;Samples;Min_cycle;Max_cycle;Signal;HPM_P1;HPM_P2
2022/04/11 00:00:00;;;;;;;5.60;3.70;;;4.30;99.90;;;;;;2520860;23;20007;-72
2022/04/11 00:01:01;;;;;;;5.15;3.50;;;4.30;99.90;;;;;;2520132;23;20002;-72
2022/04/11 00:02:02;;;;;;;6.18;3.70;;;4.30;99.90;;;;;;2519817;23;20006;-72
2022/04/11 00:03:02;;;;;;;7.05;4.15;;;4.30;99.90;;;;;;2519637;23;20018;-72
2022/04/11 00:04:03;;;;;;;9.13;4.43;;;4.30;99.90;;;;;;2519178;23;20002;-72
2022/04/11 00:05:04;;;;;;;6.95;4.10;;;4.30;99.90;;;;;;2518992;23;20006;-72
2022/04/11 00:06:05;;;;;;;8.35;4.20;;;4.30;99.90;;;;;;2518467;23;20010;-72
2022/04/11 00:07:06;;;;;;;6.75;3.90;;;4.30;99.90;;;;;;2519443;23;20037;-72
2022/04/11 00:08:07;;;;;;;7.03;3.92;;;4.30;99.90;;;;;;2519599;23;20014;-73
2022/04/11 00:09:07;;;;;;;5.80;3.70;;;4.30;99.90;;;;;;2519361;23;20077;-72
2022/04/11 00:10:08;;;;;;;7.15;3.95;;;4.30;99.90;;;;;;2519244;23;20010;-72
2022/04/11 00:11:09;;;;;;;6.72;4.00;;;4.20;99.90;;;;;;2519801;23;20006;-72
2022/04/11 00:12:10;;;;;;;6.50;4.03;;;4.20;99.90;;;;;;2519623;23;20490;-72
2022/04/11 00:13:10;;;;;;;10.52;4.22;;;4.20;99.90;;;;;;2519015;23;20013;-72
2022/04/11 00:14:11;;;;;;;7.93;4.45;;;4.20;99.90;;;;;;2519937;23;20007;-72
2022/04/11 00:15:11;;;;;;;8.23;4.38;;;4.20;99.90;;;;;;2519971;23;20089;-72
2022/04/11 00:16:13;;;;;;;8.32;4.20;;;4.20;99.90;;;;;;2518695;23;20003;-71
2022/04/11 00:17:14;;;;;;;7.28;4.10;;;4.20;99.90;;;;;;2518988;23;20081;-73
2022/04/11 00:18:15;;;;;;;7.28;4.40;;;4.20;99.90;;;;;;2519713;23;20011;-73
2022/04/11 00:19:15;;;;;;;7.25;4.30;;;4.20;99.90;;;;;;2520023;23;20002;-72
2022/04/11 00:20:16;;;;;;;7.57;4.13;;;4.20;99.90;;;;;;2519543;23;20079;-73
2022/04/11 00:21:16;;;;;;;8.10;4.25;;;4.20;99.90;;;;;;2519755;23;20195;-72
2022/04/11 00:22:17;;;;;;;8.80;4.43;;;4.20;99.90;;;;;;2519929;23;20076;-72
2022/04/11 00:23:18;;;;;;;5.55;3.78;;;4.20;99.90;;;;;;2518780;23;20006;-72
2022/04/11 00:24:18;;;;;;;7.25;4.07;;;4.20;99.90;;;;;;2519424;23;20002;-72
2022/04/11 00:25:19;;;;;;;8.73;4.40;;;4.10;99.90;;;;;;2520049;23;20387;-73
2022/04/11 00:26:20;;;;;;;7.22;4.28;;;4.10;99.90;;;;;;2520187;23;20085;-72
2022/04/11 00:27:21;;;;;;;7.95;4.30;;;4.20;99.90;;;;;;2520087;23;20006;-72
2022/04/11 00:28:21;;;;;;;9.02;4.72;;;4.20;99.90;;;;;;2520040;23;20014;-74
2022/04/11 00:29:22;;;;;;;7.20;4.57;;;4.10;99.90;;;;;;2519088;23;20378;-72
2022/04/11 00:30:23;;;;;;;8.45;4.35;;;4.20;99.90;;;;;;2507019;23;20007;-72
2022/04/11 00:31:24;;;;;;;6.05;4.15;;;4.10;99.90;;;;;;2507227;23;20014;-71
2022/04/11 00:32:24;;;;;;;7.20;4.35;;;4.20;99.90;;;;;;2518422;23;20399;-72
2022/04/11 00:33:25;;;;;;;8.10;4.65;;;4.20;99.90;;;;;;2506204;23;20003;-72
2022/04/11 00:34:25;;;;;;;8.95;4.50;;;4.20;99.90;;;;;;2507873;23;20011;-72
2022/04/11 00:35:26;;;;;;;9.90;4.90;;;4.20;99.90;;;;;;2521629;23;20117;-72
2022/04/11 00:36:27;;;;;;;6.32;4.43;;;4.20;99.90;;;;;;2518915;23;20501;-72
2022/04/11 00:37:28;;;;;;;8.75;4.50;;;4.20;99.90;;;;;;2519520;23;20006;-72
2022/04/11 00:38:28;;;;;;;7.50;4.68;;;4.20;99.90;;;;;;2521704;23;20081;-72
2022/04/11 00:39:29;;;;;;;8.10;4.60;;;4.20;99.90;;;;;;2518708;23;20010;-71
2022/04/11 00:40:29;;;;;;;7.68;4.68;;;4.20;99.90;;;;;;2518645;23;20010;-72
2022/04/11 00:41:30;;;;;;;8.45;4.65;;;4.20;99.90;;;;;;2507129;23;20154;-72
2022/04/11 00:42:32;;;;;;;9.52;4.95;;;4.30;99.90;;;;;;2506790;23;20021;-72
2022/04/11 00:43:37;;;;;;;7.82;4.65;;;4.30;99.90;;;;;;2517984;23;20014;-72
2022/04/11 00:44:38;;;;;;;8.98;4.88;;;4.30;99.90;;;;;;2506775;23;20011;-72
2022/04/11 00:45:39;;;;;;;9.10;4.70;;;4.20;99.90;;;;;;2506911;23;19999;-72
2022/04/11 00:46:39;;;;;;;11.70;5.47;;;4.30;99.90;;;;;;2519120;23;20098;-71
2022/04/11 00:47:42;;;;;;;9.68;5.30;;;4.30;99.90;;;;;;2518381;23;20025;-72
2022/04/11 00:48:43;;;;;;;7.68;5.07;;;4.30;99.90;;;;;;2518485;23;20042;-72
2022/04/11 00:49:46;;;;;;;7.88;5.03;;;4.30;99.90;;;;;;2507063;23;20114;-72
2022/04/11 00:50:47;;;;;;;8.68;4.93;;;4.30;99.90;;;;;;2507210;23;20030;-72
2022/04/11 00:51:47;;;;;;;8.88;4.85;;;4.30;99.90;;;;;;2519385;23;20006;-72
2022/04/11 00:52:55;;;;;;;9.48;5.15;;;4.30;99.90;;;;;;2518663;23;20034;-72
2022/04/11 00:53:59;;;;;;;10.43;5.18;;;4.30;99.90;;;;;;2518174;23;20090;-72
2022/04/11 00:55:00;;;;;;;9.68;5.55;;;4.30;99.90;;;;;;2517867;23;20213;-72
2022/04/11 00:56:01;;;;;;;14.38;5.53;;;4.30;99.90;;;;;;2506148;23;20021;-71
2022/04/11 00:57:02;;;;;;;9.18;5.50;;;4.30;99.90;;;;;;2494706;23;20000;-72
2022/04/11 00:58:05;;;;;;;7.97;5.10;;;4.30;99.90;;;;;;2494829;23;20062;-72
2022/04/11 00:59:05;;;;;;;8.35;5.13;;;4.30;99.90;;;;;;2519067;23;20006;-72
2022/04/11 01:00:09;;;;;;;8.70;4.90;;;4.30;99.90;;;;;;2517959;23;20340;-72
2022/04/11 01:01:09;;;;;;;8.43;4.53;;;4.20;99.90;;;;;;2518362;23;20002;-72
2022/04/11 01:02:11;;;;;;;6.97;4.65;;;4.20;99.90;;;;;;2518266;23;20007;-72
2022/04/11 01:03:12;;;;;;;7.55;4.72;;;4.20;99.90;;;;;;2517409;23;20016;-72
2022/04/11 01:04:23;;;;;;;7.68;4.78;;;4.20;99.90;;;;;;2518237;23;20455;-72
2022/04/11 01:05:23;;;;;;;8.77;4.68;;;4.20;99.90;;;;;;2518266;23;20013;-71
2022/04/11 01:06:25;;;;;;;9.10;5.00;;;4.20;99.90;;;;;;2518193;23;20017;-72
2022/04/11 01:07:26;;;;;;;7.13;4.90;;;4.20;99.90;;;;;;2518222;23;20631;-72
2022/04/11 01:08:27;;;;;;;10.48;5.50;;;4.20;99.90;;;;;;2517879;23;20022;-72
2022/04/11 01:09:28;;;;;;;7.50;5.05;;;4.20;99.90;;;;;;2518128;23;20693;-72
2022/04/11 01:10:29;;;;;;;8.40;5.22;;;4.20;99.90;;;;;;2517862;23;20018;-72
2022/04/11 01:11:29;;;;;;;10.90;5.35;;;4.20;99.90;;;;;;2518376;23;20014;-72
2022/04/11 01:12:31;;;;;;;10.10;5.20;;;4.20;99.90;;;;;;2518265;23;20089;-71
2022/04/11 01:13:32;;;;;;;7.97;4.72;;;4.20;99.90;;;;;;2505478;23;20011;-72
2022/04/11 01:14:34;;;;;;;8.63;5.00;;;4.20;99.90;;;;;;2506281;23;20007;-72
2022/04/11 01:15:36;;;;;;;11.70;5.00;;;4.20;99.90;;;;;;2506262;23;20014;-72
2022/04/11 01:16:36;;;;;;;11.40;5.20;;;4.10;99.90;;;;;;2518158;23;20038;-72
2022/04/11 01:17:39;;;;;;;8.65;4.90;;;4.10;99.90;;;;;;2518165;23;20014;-71
2022/04/11 01:18:40;;;;;;;6.97;4.82;;;4.10;99.90;;;;;;2518319;23;20101;-72
2022/04/11 01:19:41;;;;;;;7.45;4.60;;;4.10;99.90;;;;;;2518061;23;20454;-71
2022/04/11 01:20:42;;;;;;;7.72;4.60;;;4.10;99.90;;;;;;2517661;23;20006;-74
2022/04/11 01:21:49;;;;;;;7.95;4.60;;;4.10;99.90;;;;;;2518148;23;20026;-72
2022/04/11 01:22:50;;;;;;;9.15;4.75;;;4.10;99.90;;;;;;2506053;23;20416;-72
2022/04/11 01:23:52;;;;;;;7.82;4.60;;;4.10;99.90;;;;;;2505763;23;20007;-71
2022/04/11 01:24:53;;;;;;;10.27;4.90;;;4.10;99.90;;;;;;2518335;23;20050;-73
2022/04/11 01:25:54;;;;;;;8.95;4.63;;;4.10;99.90;;;;;;2518065;23;20010;-72
2022/04/11 01:26:55;;;;;;;8.25;4.40;;;4.10;99.90;;;;;;2518182;23;20010;-72
2022/04/11 01:27:59;;;;;;;6.00;4.40;;;4.10;99.90;;;;;;2518189;23;20011;-73
2022/04/11 01:29:02;;;;;;;8.32;4.95;;;4.10;99.90;;;;;;2518324;23;20017;-72
2022/04/11 01:30:04;;;;;;;8.63;4.40;;;4.10;99.90;;;;;;2518081;23;20041;-73
2022/04/11 01:31:09;;;;;;;6.82;4.53;;;4.10;99.90;;;;;;2494470;23;20038;-73
2022/04/11 01:32:10;;;;;;;6.75;4.20;;;4.10;99.90;;;;;;2495199;23;20019;-72
2022/04/11 01:33:22;;;;;;;5.68;4.20;;;4.10;99.90;;;;;;2505604;23;20007;-72
2022/04/11 01:34:24;;;;;;;4.97;3.97;;;4.10;99.90;;;;;;2508303;23;20010;-71
2022/04/11 01:35:26;;;;;;;7.45;4.00;;;4.10;99.90;;;;;;2517909;23;20048;-73
2022/04/11 01:36:31;;;;;;;7.88;4.47;;;4.10;99.90;;;;;;2517969;23;20003;-73
2022/04/11 01:37:34;;;;;;;5.47;4.20;;;4.10;99.90;;;;;;2506134;23;20049;-72
2022/04/11 01:38:34;;;;;;;7.00;4.38;;;4.10;99.90;;;;;;2494603;23;20018;-73
2022/04/11 01:39:37;;;;;;;5.70;3.92;;;4.10;99.90;;;;;;2506209;23;20074;-72
2022/04/11 01:40:49;;;;;;;6.20;4.10;;;4.10;99.90;;;;;;2518167;23;20090;-73
2022/04/11 01:41:49;;;;;;;8.43;4.30;;;4.10;99.90;;;;;;2518667;23;20014;-73
2022/04/11 01:42:50;;;;;;;6.90;4.57;;;4.10;99.90;;;;;;2506564;23;20011;-73
2022/04/11 01:43:51;;;;;;;7.15;4.38;;;4.20;99.90;;;;;;2494359;23;20118;-73
2022/04/11 01:44:52;;;;;;;7.88;4.50;;;4.10;99.90;;;;;;2506393;23;20010;-73
2022/04/11 01:45:53;;;;;;;8.25;4.28;;;4.10;99.90;;;;;;2506110;23;20104;-73
2022/04/11 01:47:04;;;;;;;7.53;4.60;;;4.10;99.90;;;;;;2508622;23;20054;-73
2022/04/11 01:48:05;;;;;;;8.43;4.70;;;4.20;99.90;;;;;;2506394;23;20015;-73
2022/04/11 01:49:06;;;;;;;8.60;4.60;;;4.20;99.90;;;;;;2506318;23;20657;-74
2022/04/11 01:50:08;;;;;;;6.53;4.93;;;4.20;99.90;;;;;;2517848;23;20171;-73
2022/04/11 01:51:09;;;;;;;6.35;4.18;;;4.20;99.90;;;;;;2518337;23;20010;-73
2022/04/11 01:52:09;;;;;;;7.32;4.47;;;4.20;99.90;;;;;;2518252;23;20010;-73
2022/04/11 01:53:19;;;;;;;5.68;4.30;;;4.10;99.90;;;;;;2517325;23;20020;-73
2022/04/11 01:54:20;;;;;;;6.90;4.95;;;4.10;99.90;;;;;;2518247;23;20438;-73
2022/04/11 01:55:20;;;;;;;6.32;4.28;;;4.20;99.90;;;;;;2518031;23;20071;-72
2022/04/11 01:56:22;;;;;;;7.63;4.55;;;4.20;99.90;;;;;;2506191;23;20006;-72
2022/04/11 01:57:23;;;;;;;7.55;4.72;;;4.10;99.90;;;;;;2506245;23;20030;-72
2022/04/11 01:58:24;;;;;;;5.68;4.28;;;4.10;99.90;;;;;;2494461;23;20007;-72
2022/04/11 01:59:24;;;;;;;8.68;4.70;;;4.10;99.90;;;;;;2507387;23;20022;-72
2022/04/11 02:00:26;;;;;;;7.70;4.40;;;4.10;99.90;;;;;;2517823;23;20404;-73
2022/04/11 02:01:27;;;;;;;7.18;4.68;;;4.10;99.90;;;;;;2518155;23;20470;-72
2022/04/11 02:02:28;;;;;;;5.30;4.25;;;4.10;99.90;;;;;;2518192;23;20048;-73
2022/04/11 02:03:28;;;;;;;6.60;4.40;;;4.10;99.90;;;;;;2505521;23;20082;-73
2022/04/11 02:04:31;;;;;;;7.05;4.53;;;4.10;99.90;;;;;;2506415;23;20049;-72
2022/04/11 02:05:32;;;;;;;6.80;4.60;;;4.10;99.90;;;;;;2518903;23;20090;-73
2022/04/11 02:06:34;;;;;;;10.18;4.97;;;4.10;99.90;;;;;;2518038;23;20021;-73
2022/04/11 02:07:35;;;;;;;6.72;4.43;;;4.10;99.90;;;;;;2506186;23;20395;-73
2022/04/11 02:08:35;;;;;;;5.80;4.00;;;4.10;99.90;;;;;;2494456;23;20015;-73
2022/04/11 02:09:41;;;;;;;6.35;4.40;;;4.10;99.90;;;;;;2507054;23;20010;-73
2022/04/11 02:10:42;;;;;;;6.05;4.57;;;4.10;99.90;;;;;;2506029;23;20069;-73
2022/04/11 02:11:44;;;;;;;7.57;4.75;;;4.00;99.90;;;;;;2506481;23;20015;-73
2022/04/11 02:12:47;;;;;;;6.53;4.40;;;4.00;99.90;;;;;;2506161;23;20054;-73
2022/04/11 02:13:48;;;;;;;7.40;4.63;;;4.00;99.90;;;;;;2505831;23;20031;-73
2022/04/11 02:14:48;;;;;;;6.88;4.90;;;3.90;99.90;;;;;;2518962;23;20062;-73
2022/04/11 02:15:49;;;;;;;8.63;4.82;;;3.90;99.90;;;;;;2518876;23;20098;-72
2022/04/11 02:16:49;;;;;;;6.75;4.72;;;3.90;99.90;;;;;;2518972;23;20085;-72
2022/04/11 02:17:50;;;;;;;8.48;4.65;;;3.90;99.90;;;;;;2518148;23;20030;-72
2022/04/11 02:18:51;;;;;;;8.88;4.93;;;3.80;99.90;;;;;;2518201;23;20084;-73
2022/04/11 02:19:51;;;;;;;7.10;4.95;;;3.70;99.90;;;;;;2518233;23;20065;-73
2022/04/11 02:20:52;;;;;;;8.93;4.70;;;3.70;99.90;;;;;;2506085;23;20003;-73
2022/04/11 02:21:52;;;;;;;8.10;5.05;;;3.70;99.90;;;;;;2506447;23;20034;-73
2022/04/11 02:22:55;;;;;;;7.18;4.65;;;3.60;99.90;;;;;;2518066;23;20022;-72
2022/04/11 02:23:56;;;;;;;6.95;4.90;;;3.60;99.90;;;;;;2517572;23;20010;-73
2022/04/11 02:24:56;;;;;;;6.75;4.80;;;3.60;99.90;;;;;;2518237;23;20019;-73
2022/04/11 02:25:57;;;;;;;6.30;4.90;;;3.60;99.90;;;;;;2506350;23;20011;-73
2022/04/11 02:26:58;;;;;;;7.60;4.95;;;3.50;99.90;;;;;;2506305;23;20734;-74
2022/04/11 02:28:00;;;;;;;8.27;5.00;;;3.50;99.90;;;;;;2517938;23;20011;-73
2022/04/11 02:29:01;;;;;;;7.25;5.25;;;3.40;99.90;;;;;;2518292;23;20017;-73
2022/04/11 02:30:03;;;;;;;9.02;5.78;;;3.40;99.90;;;;;;2518289;23;20506;-73
2022/04/11 02:31:04;;;;;;;8.80;5.50;;;3.40;99.90;;;;;;2518264;23;20010;-73
2022/04/11 02:32:05;;;;;;;7.80;5.40;;;3.30;99.90;;;;;;2506355;23;20022;-72
2022/04/11 02:33:06;;;;;;;10.32;5.70;;;3.30;99.90;;;;;;2505732;23;20009;-72
2022/04/11 02:34:06;;;;;;;9.27;5.70;;;3.30;99.90;;;;;;2518432;23;20451;-73
2022/04/11 02:35:07;;;;;;;8.25;5.38;;;3.30;99.90;;;;;;2518598;23;20089;-73
2022/04/11 02:36:08;;;;;;;7.82;5.28;;;3.30;99.90;;;;;;2518525;23;20002;-71
2022/04/11 02:37:09;;;;;;;8.75;5.40;;;3.20;99.90;;;;;;2519360;23;20045;-73
2022/04/11 02:38:10;;;;;;;9.93;5.63;;;3.20;99.90;;;;;;2519181;23;20002;-71
2022/04/11 02:39:12;;;;;;;8.20;5.40;;;3.20;99.90;;;;;;2519252;23;20048;-73
2022/04/11 02:40:13;;;;;;;7.72;5.53;;;3.10;99.90;;;;;;2518449;23;20013;-73
2022/04/11 02:41:21;;;;;;;7.72;5.32;;;3.10;99.90;;;;;;2518167;23;20530;-73
2022/04/11 02:42:26;;;;;;;8.80;5.30;;;3.10;99.90;;;;;;2509258;23;20058;-74
2022/04/11 02:43:33;;;;;;;9.18;5.10;;;3.10;99.90;;;;;;2518615;23;20629;-73
2022/04/11 02:44:40;;;;;;;8.65;5.15;;;3.10;99.90;;;;;;2519653;23;20374;-73
2022/04/11 02:45:41;;;;;;;7.13;5.10;;;3.00;99.90;;;;;;2519330;23;20042;-74
2022/04/11 02:46:44;;;;;;;9.45;4.90;;;3.00;99.90;;;;;;2519197;23;20017;-73
2022/04/11 02:47:45;;;;;;;8.77;5.10;;;3.00;99.90;;;;;;2507456;23;20030;-72
2022/04/11 02:48:47;;;;;;;7.80;5.30;;;2.90;99.90;;;;;;2519828;23;20011;-73
2022/04/11 02:50:02;;;;;;;8.45;5.93;;;2.90;99.90;;;;;;2519182;23;20002;-72
2022/04/11 02:51:17;;;;;;;8.02;5.43;;;2.90;99.90;;;;;;2516401;23;20010;-71
2022/04/11 02:52:22;;;;;;;8.88;5.85;;;2.90;99.90;;;;;;2507845;23;20018;-73
2022/04/11 02:53:23;;;;;;;7.28;5.20;;;2.90;99.90;;;;;;2518168;23;20355;-72
2022/04/11 02:54:24;;;;;;;9.27;5.45;;;2.80;99.90;;;;;;2518045;23;20007;-72
2022/04/11 02:55:25;;;;;;;7.28;5.00;;;2.80;99.90;;;;;;2518140;23;20021;-72
2022/04/11 02:56:26;;;;;;;7.25;4.68;;;2.80;99.90;;;;;;2518328;23;20695;-71
2022/04/11 02:57:29;;;;;;;8.50;5.18;;;2.80;99.90;;;;;;2518382;23;20006;-72
2022/04/11 02:58:29;;;;;;;6.82;5.10;;;2.80;99.90;;;;;;2518043;23;20518;-71
2022/04/11 02:59:32;;;;;;;5.70;4.80;;;2.80;99.90;;;;;;2506616;23;20059;-73
2022/04/11 03:00:33;;;;;;;8.32;4.93;;;2.80;99.90;;;;;;2518343;23;20494;-72
2022/04/11 03:01:34;;;;;;;9.05;5.10;;;2.80;99.90;;;;;;2519086;23;20002;-72
2022/04/11 03:02:35;;;;;;;7.25;5.07;;;2.80;99.90;;;;;;2518245;23;20425;-73
2022/04/11 03:03:37;;;;;;;8.48;5.40;;;2.80;99.90;;;;;;2493757;23;20035;-72
2022/04/11 03:04:38;;;;;;;8.75;5.28;;;2.80;99.90;;;;;;2494754;23;20160;-72
2022/04/11 03:05:45;;;;;;;6.93;4.85;;;2.90;99.90;;;;;;2517909;23;20043;-72
2022/04/11 03:06:45;;;;;;;8.98;5.18;;;2.90;99.90;;;;;;2517846;23;20007;-71
2022/04/11 03:07:47;;;;;;;7.43;4.60;;;2.90;99.90;;;;;;2517805;23;20025;-71
2022/04/11 03:08:49;;;;;;;9.93;5.15;;;2.90;99.90;;;;;;2494304;23;20019;-71
2022/04/11 03:09:57;;;;;;;8.40;5.10;;;3.00;99.90;;;;;;2485197;23;20023;-72
2022/04/11 03:10:58;;;;;;;8.05;5.03;;;3.00;99.90;;;;;;2506093;23;20022;-71
2022/04/11 03:12:00;;;;;;;7.40;4.57;;;3.00;99.90;;;;;;2517985;23;20044;-72
2022/04/11 03:13:03;;;;;;;7.72;4.78;;;3.00;99.90;;;;;;2518018;23;20098;-71
2022/04/11 03:14:06;;;;;;;6.95;4.57;;;3.00;99.90;;;;;;2518218;23;20028;-71
2022/04/11 03:15:08;;;;;;;6.65;4.78;;;3.10;99.90;;;;;;2517722;23;20412;-72
2022/04/11 03:16:09;;;;;;;6.53;4.50;;;3.10;99.90;;;;;;2518152;23;20005;-74
2022/04/11 03:17:10;;;;;;;7.18;4.60;;;3.10;99.90;;;;;;2518128;23;20085;-71
2022/04/11 03:18:11;;;;;;;7.22;4.65;;;3.10;99.90;;;;;;2518117;23;20041;-72
2022/04/11 03:19:13;;;;;;;7.97;4.75;;;3.10;99.90;;;;;;2518285;23;20085;-71
2022/04/11 03:20:14;;;;;;;7.10;4.32;;;3.10;99.90;;;;;;2506481;23;20007;-72
2022/04/11 03:21:17;;;;;;;6.35;4.47;;;3.00;99.90;;;;;;2507236;23;19991;-72
2022/04/11 03:22:23;;;;;;;6.45;4.68;;;3.10;99.90;;;;;;2518852;23;20038;-72
2022/04/11 03:23:29;;;;;;;7.13;4.70;;;3.10;99.90;;;;;;2518127;23;20475;-72
2022/04/11 03:24:32;;;;;;;6.53;4.50;;;3.00;99.90;;;;;;2518572;23;20021;-72
2022/04/11 03:25:32;;;;;;;7.50;4.57;;;3.00;99.90;;;;;;2518707;23;20370;-72
2022/04/11 03:26:33;;;;;;;7.35;4.88;;;3.00;99.90;;;;;;2518579;23;20034;-72
2022/04/11 03:27:35;;;;;;;7.25;4.88;;;3.00;99.90;;;;;;2518672;23;20140;-73
2022/04/11 03:28:36;;;;;;;11.35;5.70;;;2.90;99.90;;;;;;2518563;23;20010;-72
2022/04/11 03:29:37;;;;;;;11.02;6.43;;;2.90;99.90;;;;;;2518630;23;20490;-72
2022/04/11 03:30:38;;;;;;;8.75;5.57;;;2.90;99.90;;;;;;2506533;23;20015;-72
2022/04/11 03:31:38;;;;;;;10.15;6.28;;;2.90;99.90;;;;;;2506741;23;20131;-72
2022/04/11 03:32:42;;;;;;;8.77;5.78;;;2.90;99.90;;;;;;2506809;23;20027;-72
2022/04/11 03:33:46;;;;;;;10.35;6.30;;;2.90;99.90;;;;;;2506464;23;20492;-71
2022/04/11 03:34:46;;;;;;;10.63;6.57;;;2.90;99.90;;;;;;2518433;23;20058;-71
2022/04/11 03:35:47;;;;;;;11.80;6.80;;;2.90;99.90;;;;;;2518759;23;20003;-73
2022/04/11 03:36:48;;;;;;;10.70;6.25;;;2.80;99.90;;;;;;2518636;23;20042;-72
2022/04/11 03:37:49;;;;;;;11.85;6.70;;;2.80;99.90;;;;;;2518569;23;20010;-72
2022/04/11 03:38:59;;;;;;;10.38;6.22;;;2.80;99.90;;;;;;2506638;23;20007;-73
2022/04/11 03:40:03;;;;;;;13.18;6.93;;;2.80;99.90;;;;;;2494957;23;20404;-73
2022/04/11 03:41:04;;;;;;;14.60;6.78;;;2.80;99.90;;;;;;2506940;23;20548;-73
2022/04/11 03:42:05;;;;;;;11.68;6.53;;;2.80;99.90;;;;;;2518469;23;20002;-71
2022/04/11 03:43:07;;;;;;;11.68;6.60;;;2.80;99.90;;;;;;2517472;23;20013;-71
2022/04/11 03:44:10;;;;;;;10.27;6.20;;;2.70;99.90;;;;;;2518592;23;20117;-72
2022/04/11 03:45:11;;;;;;;11.48;6.35;;;2.80;99.90;;;;;;2506448;23;20351;-74
2022/04/11 03:46:13;;;;;;;10.88;6.25;;;2.70;99.90;;;;;;2495148;23;20026;-74
2022/04/11 03:47:13;;;;;;;10.65;6.22;;;2.70;99.90;;;;;;2506535;23;20038;-72
2022/04/11 03:48:14;;;;;;;11.73;6.57;;;2.70;99.90;;;;;;2518444;23;20013;-73
2022/04/11 03:49:15;;;;;;;12.35;6.38;;;2.70;99.90;;;;;;2518665;23;20085;-72
2022/04/11 03:50:16;;;;;;;13.23;7.28;;;2.70;99.90;;;;;;2518385;23;20089;-71
2022/04/11 03:51:20;;;;;;;14.35;7.43;;;2.70;99.90;;;;;;2518597;23;20046;-72
2022/04/11 03:52:21;;;;;;;14.20;7.28;;;2.70;99.90;;;;;;2518686;23;20015;-72
2022/04/11 03:53:22;;;;;;;16.80;7.65;;;2.70;99.90;;;;;;2517793;23;20002;-72
2022/04/11 03:54:29;;;;;;;18.58;9.43;;;2.70;99.90;;;;;;2518559;23;20010;-72
2022/04/11 03:55:30;;;;;;;20.33;9.75;;;2.70;99.90;;;;;;2518562;23;20482;-72
2022/04/11 03:56:31;;;;;;;16.60;7.72;;;2.70;99.90;;;;;;2518461;23;20056;-72
2022/04/11 03:57:34;;;;;;;10.77;6.70;;;2.70;99.90;;;;;;2518590;23;20013;-72
2022/04/11 03:58:36;;;;;;;11.02;6.13;;;2.70;99.90;;;;;;2518595;23;20002;-72
2022/04/11 03:59:42;;;;;;;10.27;5.88;;;2.70;99.90;;;;;;2518719;23;20011;-72
2022/04/11 04:00:44;;;;;;;12.40;6.28;;;2.70;99.90;;;;;;2518536;23;20002;-75
2022/04/11 04:01:55;;;;;;;10.57;5.90;;;2.80;99.90;;;;;;2518880;23;20021;-73
2022/04/11 04:03:10;;;;;;;11.07;5.50;;;2.80;99.90;;;;;;2518589;23;20054;-72
2022/04/11 04:04:13;;;;;;;11.65;6.00;;;2.80;99.90;;;;;;2518723;23;20007;-73
2022/04/11 04:05:14;;;;;;;11.80;6.10;;;2.80;99.90;;;;;;2518897;23;20486;-72
2022/04/11 04:06:15;;;;;;;11.90;6.43;;;2.80;99.90;;;;;;2518946;23;20471;-73
2022/04/11 04:07:18;;;;;;;10.50;5.68;;;2.80;99.90;;;;;;2518849;23;20007;-74
2022/04/11 04:08:21;;;;;;;10.40;5.82;;;2.80;99.90;;;;;;2518773;23;20045;-74
2022/04/11 04:09:31;;;;;;;11.40;6.43;;;2.70;99.90;;;;;;2518620;23;20140;-73
2022/04/11 04:10:32;;;;;;;10.68;6.15;;;2.70;99.90;;;;;;2518795;23;20007;-74
2022/04/11 04:11:33;;;;;;;12.77;6.10;;;2.70;99.90;;;;;;2518700;23;20133;-74
2022/04/11 04:13:03;;;;;;;10.07;5.72;;;2.70;99.90;;;;;;2507149;23;20018;-74
2022/04/11 04:14:04;;;;;;;11.63;5.30;;;2.70;99.90;;;;;;2518475;23;20090;-74
2022/04/11 04:15:09;;;;;;;8.70;5.70;;;2.70;99.90;;;;;;2506978;23;20011;-74
2022/04/11 04:16:12;;;;;;;9.05;5.00;;;2.70;99.90;;;;;;2506915;23;20014;-73
2022/04/11 04:17:16;;;;;;;9.35;5.47;;;2.60;99.90;;;;;;2508054;23;20035;-72
2022/04/11 04:18:23;;;;;;;10.40;5.50;;;2.60;99.90;;;;;;2518934;23;20450;-72
2022/04/11 04:19:25;;;;;;;12.63;5.65;;;2.60;99.90;;;;;;2506668;23;20456;-73
2022/04/11 04:20:26;;;;;;;10.48;4.90;;;2.60;99.90;;;;;;2506600;23;20007;-72
2022/04/11 04:21:28;;;;;;;10.75;5.18;;;2.60;99.90;;;;;;2518682;23;19999;-71
2022/04/11 04:22:28;;;;;;;10.68;5.30;;;2.60;99.90;;;;;;2518802;23;20038;-73
2022/04/11 04:23:29;;;;;;;9.02;5.07;;;2.60;99.90;;;;;;2518080;23;20513;-73
2022/04/11 04:24:32;;;;;;;10.30;5.57;;;2.60;99.90;;;;;;2518761;23;20526;-73
2022/04/11 04:25:35;;;;;;;11.27;7.80;;;2.60;99.90;;;;;;2506794;23;20097;-74
2022/04/11 04:26:36;;;;;;;12.95;8.23;;;2.60;99.90;;;;;;2495094;23;20011;-74
2022/04/11 04:27:38;;;;;;;12.63;7.63;;;2.60;99.90;;;;;;2506841;23;20769;-73
2022/04/11 04:28:40;;;;;;;12.00;7.80;;;2.50;99.90;;;;;;2507313;23;20418;-74
2022/04/11 04:29:40;;;;;;;11.98;7.38;;;2.50;99.90;;;;;;2518390;23;20157;-74
2022/04/11 04:30:41;;;;;;;11.70;7.57;;;2.50;99.90;;;;;;2518180;23;20510;-74
2022/04/11 04:31:43;;;;;;;13.30;7.40;;;2.50;99.90;;;;;;2518476;23;20006;-73
2022/04/11 04:32:43;;;;;;;10.95;7.07;;;2.50;99.90;;;;;;2518417;23;20105;-73
2022/04/11 04:33:44;;;;;;;13.27;7.53;;;2.50;99.90;;;;;;2517973;23;20014;-72
2022/04/11 04:34:46;;;;;;;9.57;6.25;;;2.50;99.90;;;;;;2506608;23;20451;-72
2022/04/11 04:35:48;;;;;;;11.32;6.75;;;2.50;99.90;;;;;;2507565;23;20062;-71
2022/04/11 04:36:48;;;;;;;10.38;6.72;;;2.50;99.90;;;;;;2520292;23;20081;-71
2022/04/11 04:37:50;;;;;;;14.35;6.90;;;2.50;99.90;;;;;;2520052;23;20013;-72
2022/04/11 04:38:51;;;;;;;12.15;6.90;;;2.50;99.90;;;;;;2495513;23;20015;-72
2022/04/11 04:39:51;;;;;;;9.48;6.55;;;2.50;99.90;;;;;;2497096;23;20018;-73
2022/04/11 04:40:52;;;;;;;10.10;6.47;;;2.50;99.90;;;;;;2508649;23;20062;-72
2022/04/11 04:41:56;;;;;;;11.45;6.70;;;2.50;99.90;;;;;;2497484;23;20019;-72
2022/04/11 04:42:59;;;;;;;9.48;6.43;;;2.50;99.90;;;;;;2508379;23;20129;-72
2022/04/11 04:44:00;;;;;;;9.85;6.57;;;2.60;99.90;;;;;;2507890;23;20011;-72
2022/04/11 04:45:00;;;;;;;11.32;6.25;;;2.50;99.90;;;;;;2497613;23;20022;-72
2022/04/11 04:46:02;;;;;;;14.00;6.63;;;2.60;99.90;;;;;;2508099;23;20056;-73
2022/04/11 04:47:17;;;;;;;13.68;7.30;;;2.60;99.90;;;;;;2500391;23;20022;-73
2022/04/11 04:48:18;;;;;;;11.70;7.07;;;2.60;99.90;;;;;;2510403;23;20031;-73
2022/04/11 04:49:19;;;;;;;13.85;7.57;;;2.60;99.90;;;;;;2522844;23;20034;-73
2022/04/11 04:50:20;;;;;;;15.52;7.90;;;2.60;99.90;;;;;;2498425;23;20371;-73
2022/04/11 04:51:21;;;;;;;11.55;7.50;;;2.60;99.90;;;;;;2498232;23;20007;-73
2022/04/11 04:52:31;;;;;;;13.30;7.68;;;2.70;99.90;;;;;;2520480;23;20018;-72
2022/04/11 04:53:36;;;;;;;14.32;7.80;;;2.60;99.90;;;;;;2520305;23;20002;-72
2022/04/11 04:54:37;;;;;;;11.57;7.70;;;2.70;99.90;;;;;;2506412;23;20093;-72
2022/04/11 04:55:39;;;;;;;12.23;7.80;;;2.70;99.90;;;;;;2507088;23;20021;-72
2022/04/11 04:56:43;;;;;;;13.20;7.32;;;2.70;99.90;;;;;;2494769;23;19999;-71
2022/04/11 04:57:50;;;;;;;12.68;7.75;;;2.80;99.90;;;;;;2497924;23;20019;-71
2022/04/11 04:58:51;;;;;;;10.85;7.50;;;2.90;99.90;;;;;;2506785;23;20395;-72
2022/04/11 04:59:55;;;;;;;12.73;7.50;;;2.90;99.90;;;;;;2506722;23;20097;-72
2022/04/11 05:01:05;;;;;;;12.63;7.70;;;3.10;99.90;;;;;;2508545;23;20011;-73
2022/04/11 05:02:23;;;;;;;13.68;7.53;;;3.20;99.90;;;;;;2518727;23;20046;-71
2022/04/11 05:03:26;;;;;;;13.90;7.20;;;3.30;99.90;;;;;;2518790;23;20097;-72
2022/04/11 05:04:30;;;;;;;11.32;7.55;;;3.40;99.90;;;;;;2506334;23;20025;-72
2022/04/11 05:05:35;;;;;;;11.60;7.40;;;3.50;99.90;;;;;;2496502;23;20051;-72
2022/04/11 05:06:36;;;;;;;13.93;7.82;;;3.60;99.90;;;;;;2506436;23;20077;-74
2022/04/11 05:07:38;;;;;;;13.55;7.53;;;3.80;99.90;;;;;;2506646;23;20447;-72
2022/04/11 05:08:39;;;;;;;11.82;7.05;;;3.90;99.90;;;;;;2494287;23;20015;-75
2022/04/11 05:09:41;;;;;;;12.02;7.20;;;4.10;99.90;;;;;;2483028;23;20075;-72
2022/04/11 05:10:43;;;;;;;12.48;7.28;;;4.30;99.90;;;;;;2506036;23;20094;-72
2022/04/11 05:11:45;;;;;;;12.18;7.00;;;4.50;99.90;;;;;;2506442;23;20035;-72
2022/04/11 05:12:47;;;;;;;11.57;6.85;;;4.80;99.90;;;;;;2506348;23;20465;-72
2022/04/11 05:13:49;;;;;;;9.90;6.68;;;5.10;99.90;;;;;;2505708;23;20049;-72
2022/04/11 05:14:51;;;;;;;10.57;7.20;;;5.30;99.90;;;;;;2506776;23;20023;-73
2022/04/11 05:15:52;;;;;;;13.00;7.07;;;5.60;99.90;;;;;;2518110;23;20134;-71
2022/04/11 05:16:57;;;;;;;12.40;7.70;;;5.80;99.90;;;;;;2518246;23;20554;-73
2022/04/11 05:18:00;;;;;;;12.13;8.45;;;6.00;99.90;;;;;;2517944;23;20439;-72
2022/04/11 05:19:02;;;;;;;11.95;7.90;;;6.20;99.90;;;;;;2506975;23;20032;-74
2022/04/11 05:20:09;;;;;;;15.32;8.23;;;6.50;99.90;;;;;;2522512;23;19998;-73
2022/04/11 05:21:14;;;;;;;14.20;8.57;;;6.70;99.90;;;;;;2520231;23;20006;-73
2022/04/11 05:22:16;;;;;;;12.65;8.52;;;6.90;99.90;;;;;;2520244;23;20007;-73
2022/04/11 05:23:18;;;;;;;14.57;8.48;;;7.10;99.90;;;;;;2517680;23;20010;-72
2022/04/11 05:24:20;;;;;;;14.68;8.98;;;7.20;99.90;;;;;;2518276;23;20014;-73
2022/04/11 05:25:20;;;;;;;22.92;11.35;;;7.40;99.90;;;;;;2518221;23;20065;-73
2022/04/11 05:26:22;;;;;;;17.23;10.77;;;7.60;99.90;;;;;;2518112;23;20021;-72